sensor_id;sensor_type;location;lat;lon;timestamp;P1;durP1;ratioP1;P2;durP2;ratioP2
17967;SDS011;9109;48.050;11.696;2023-03-01T04:48:52;45.63;;;17.63;;
17967;SDS011;9109;48.050;11.696;2023-03-01T04:51:55;43.33;;;17.23;;
17967;SDS011;9109;48.050;11.696;2023-03-01T04:54:59;40.17;;;16.93;;
17967;SDS011;9109;48.050;11.696;2023-03-01T04:58:01;41.07;;;15.93;;
17967;SDS011;9109;48.050;11.696;2023-03-01T05:01:07;40.07;;;17.17;;
17967;SDS011;9109;48.050;11.696;2023-03-01T05:04:16;35.77;;;17.13;;
17967;SDS011;9109;48.050;11.696;2023-03-01T05:07:18;38.37;;;17.17;;
17967;SDS011;9109;48.050;11.696;2023-03-01T05:10:21;34.53;;;16.67;;
17967;SDS011;9109;48.050;11.696;2023-03-01T05:13:23;39.80;;;17.50;;
17967;SDS011;9109;48.050;11.696;2023-03-01T05:16:25;43.63;;;17.97;;
17967;SDS011;9109;48.050;11.696;2023-03-01T05:19:28;39.57;;;17.33;;
17967;SDS011;9109;48.050;11.696;2023-03-01T05:22:30;47.17;;;17.37;;
17967;SDS011;9109;48.050;11.696;2023-03-01T05:25:33;37.33;;;18.00;;
17967;SDS011;9109;48.050;11.696;2023-03-01T05:28:40;49.03;;;21.57;;
17967;SDS011;9109;48.050;11.696;2023-03-01T05:31:41;37.07;;;17.27;;
17967;SDS011;9109;48.050;11.696;2023-03-01T05:34:45;39.07;;;17.80;;
17967;SDS011;9109;48.050;11.696;2023-03-01T05:37:47;40.10;;;16.60;;
17967;SDS011;9109;48.050;11.696;2023-03-01T05:40:50;38.43;;;17.53;;
17967;SDS011;9109;48.050;11.696;2023-03-01T05:43:51;44.37;;;17.77;;
17967;SDS011;9109;48.050;11.696;2023-03-01T05:46:53;47.80;;;19.80;;
17967;SDS011;9109;48.050;11.696;2023-03-01T05:49:57;42.43;;;18.33;;
17967;SDS011;9109;48.050;11.696;2023-03-01T05:53:00;39.33;;;17.80;;
17967;SDS011;9109;48.050;11.696;2023-03-01T05:56:04;43.60;;;17.97;;
17967;SDS011;9109;48.050;11.696;2023-03-01T05:59:07;41.23;;;17.33;;
17967;SDS011;9109;48.050;11.696;2023-03-01T06:02:09;39.70;;;17.43;;
17967;SDS011;9109;48.050;11.696;2023-03-01T06:05:14;40.83;;;17.80;;
17967;SDS011;9109;48.050;11.696;2023-03-01T06:08:16;40.53;;;17.30;;
17967;SDS011;9109;48.050;11.696;2023-03-01T06:11:20;38.70;;;17.00;;
17967;SDS011;9109;48.050;11.696;2023-03-01T06:14:22;40.20;;;17.40;;
17967;SDS011;9109;48.050;11.696;2023-03-01T06:17:35;36.17;;;16.43;;
17967;SDS011;9109;48.050;11.696;2023-03-01T06:20:43;43.67;;;18.10;;
17967;SDS011;9109;48.050;11.696;2023-03-01T06:23:44;40.83;;;17.40;;
17967;SDS011;9109;48.050;11.696;2023-03-01T06:26:47;42.90;;;17.83;;
17967;SDS011;9109;48.050;11.696;2023-03-01T06:29:49;35.57;;;17.03;;
17967;SDS011;9109;48.050;11.696;2023-03-01T06:32:51;38.63;;;16.40;;
17967;SDS011;9109;48.050;11.696;2023-03-01T06:36:02;36.87;;;16.20;;
17967;SDS011;9109;48.050;11.696;2023-03-01T06:39:05;35.53;;;15.47;;
17967;SDS011;9109;48.050;11.696;2023-03-01T06:42:07;35.67;;;15.43;;
17967;SDS011;9109;48.050;11.696;2023-03-01T06:45:10;40.67;;;17.97;;
17967;SDS011;9109;48.050;11.696;2023-03-01T06:48:12;36.43;;;16.93;;
17967;SDS011;9109;48.050;11.696;2023-03-01T06:51:15;44.70;;;17.73;;
17967;SDS011;9109;48.050;11.696;2023-03-01T06:54:17;45.40;;;17.77;;
17967;SDS011;9109;48.050;11.696;2023-03-01T06:57:22;38.70;;;17.70;;
17967;SDS011;9109;48.050;11.696;2023-03-01T07:00:24;40.87;;;17.53;;
17967;SDS011;9109;48.050;11.696;2023-03-01T07:03:26;45.80;;;18.20;;
17967;SDS011;9109;48.050;11.696;2023-03-01T07:06:29;44.63;;;17.97;;
17967;SDS011;9109;48.050;11.696;2023-03-01T07:09:31;41.80;;;16.13;;
17967;SDS011;9109;48.050;11.696;2023-03-01T07:12:33;45.80;;;18.37;;
17967;SDS011;9109;48.050;11.696;2023-03-01T07:15:35;43.20;;;17.60;;
17967;SDS011;9109;48.050;11.696;2023-03-01T07:18:37;45.37;;;18.73;;
17967;SDS011;9109;48.050;11.696;2023-03-01T07:21:40;37.83;;;16.57;;
17967;SDS011;9109;48.050;11.696;2023-03-01T07:24:42;38.17;;;16.80;;
17967;SDS011;9109;48.050;11.696;2023-03-01T07:27:48;37.70;;;17.37;;
17967;SDS011;9109;48.050;11.696;2023-03-01T07:30:50;39.97;;;16.73;;
17967;SDS011;9109;48.050;11.696;2023-03-01T07:33:52;44.27;;;18.27;;
17967;SDS011;9109;48.050;11.696;2023-03-01T07:36:55;48.40;;;20.10;;
17967;SDS011;9109;48.050;11.696;2023-03-01T07:39:57;46.73;;;17.47;;
17967;SDS011;9109;48.050;11.696;2023-03-01T07:42:59;43.27;;;18.40;;
17967;SDS011;9109;48.050;11.696;2023-03-01T07:46:01;45.43;;;18.53;;
17967;SDS011;9109;48.050;11.696;2023-03-01T07:49:04;40.53;;;17.93;;
17967;SDS011;9109;48.050;11.696;2023-03-01T07:52:07;43.70;;;18.13;;
17967;SDS011;9109;48.050;11.696;2023-03-01T07:55:11;52.10;;;18.93;;
17967;SDS011;9109;48.050;11.696;2023-03-01T07:58:13;45.00;;;18.70;;
17967;SDS011;9109;48.050;11.696;2023-03-01T08:01:15;44.63;;;18.40;;
17967;SDS011;9109;48.050;11.696;2023-03-01T08:04:19;47.40;;;19.03;;
17967;SDS011;9109;48.050;11.696;2023-03-01T08:07:22;50.70;;;20.30;;
17967;SDS011;9109;48.050;11.696;2023-03-01T08:10:24;49.87;;;19.33;;
17967;SDS011;9109;48.050;11.696;2023-03-01T08:13:26;46.73;;;18.73;;
17967;SDS011;9109;48.050;11.696;2023-03-01T08:16:28;47.97;;;18.93;;
17967;SDS011;9109;48.050;11.696;2023-03-01T08:19:30;43.67;;;19.13;;
17967;SDS011;9109;48.050;11.696;2023-03-01T08:22:34;42.87;;;17.97;;
17967;SDS011;9109;48.050;11.696;2023-03-01T08:25:36;45.30;;;21.30;;
17967;SDS011;9109;48.050;11.696;2023-03-01T08:28:38;51.37;;;22.40;;
17967;SDS011;9109;48.050;11.696;2023-03-01T08:31:40;58.33;;;22.03;;
17967;SDS011;9109;48.050;11.696;2023-03-01T08:34:42;42.43;;;19.23;;
17967;SDS011;9109;48.050;11.696;2023-03-01T08:37:49;52.97;;;19.20;;
17967;SDS011;9109;48.050;11.696;2023-03-01T08:40:50;41.43;;;18.40;;
17967;SDS011;9109;48.050;11.696;2023-03-01T08:43:52;50.20;;;21.27;;
17967;SDS011;9109;48.050;11.696;2023-03-01T08:46:58;50.27;;;19.10;;
17967;SDS011;9109;48.050;11.696;2023-03-01T08:50:00;41.40;;;18.67;;
17967;SDS011;9109;48.050;11.696;2023-03-01T08:53:03;51.47;;;20.70;;
17967;SDS011;9109;48.050;11.696;2023-03-01T08:56:05;54.07;;;18.57;;
17967;SDS011;9109;48.050;11.696;2023-03-01T08:59:08;47.03;;;19.77;;
17967;SDS011;9109;48.050;11.696;2023-03-01T09:02:11;42.60;;;18.00;;
17967;SDS011;9109;48.050;11.696;2023-03-01T09:05:15;50.37;;;19.70;;
17967;SDS011;9109;48.050;11.696;2023-03-01T09:08:18;45.33;;;18.97;;
17967;SDS011;9109;48.050;11.696;2023-03-01T09:11:20;45.20;;;19.90;;
17967;SDS011;9109;48.050;11.696;2023-03-01T09:14:23;47.73;;;18.40;;
17967;SDS011;9109;48.050;11.696;2023-03-01T09:17:25;45.27;;;18.03;;
17967;SDS011;9109;48.050;11.696;2023-03-01T09:20:27;43.73;;;18.83;;
17967;SDS011;9109;48.050;11.696;2023-03-01T09:23:30;42.57;;;19.13;;
17967;SDS011;9109;48.050;11.696;2023-03-01T09:26:32;42.10;;;18.67;;
17967;SDS011;9109;48.050;11.696;2023-03-01T09:29:34;44.70;;;19.10;;
17967;SDS011;9109;48.050;11.696;2023-03-01T09:32:36;44.57;;;19.27;;
17967;SDS011;9109;48.050;11.696;2023-03-01T09:35:42;42.40;;;18.33;;
17967;SDS011;9109;48.050;11.696;2023-03-01T09:38:48;40.07;;;17.60;;
17967;SDS011;9109;48.050;11.696;2023-03-01T09:41:53;48.93;;;19.20;;
17967;SDS011;9109;48.050;11.696;2023-03-01T09:45:03;48.73;;;19.60;;
17967;SDS011;9109;48.050;11.696;2023-03-01T09:48:08;49.57;;;20.03;;
17967;SDS011;9109;48.050;11.696;2023-03-01T09:51:17;49.07;;;20.63;;
17967;SDS011;9109;48.050;11.696;2023-03-01T09:54:23;45.63;;;20.87;;
17967;SDS011;9109;48.050;11.696;2023-03-01T09:57:26;43.17;;;18.17;;
17967;SDS011;9109;48.050;11.696;2023-03-01T10:00:36;47.93;;;19.47;;
17967;SDS011;9109;48.050;11.696;2023-03-01T10:03:43;50.43;;;20.90;;
17967;SDS011;9109;48.050;11.696;2023-03-01T10:06:51;42.40;;;18.57;;
17967;SDS011;9109;48.050;11.696;2023-03-01T10:10:06;47.40;;;19.43;;
17967;SDS011;9109;48.050;11.696;2023-03-01T10:13:10;51.47;;;19.97;;
17967;SDS011;9109;48.050;11.696;2023-03-01T10:16:19;45.03;;;19.27;;
17967;SDS011;9109;48.050;11.696;2023-03-01T10:19:28;52.07;;;20.87;;
17967;SDS011;9109;48.050;11.696;2023-03-01T10:22:33;53.20;;;20.73;;
17967;SDS011;9109;48.050;11.696;2023-03-01T10:25:40;44.80;;;18.60;;
17967;SDS011;9109;48.050;11.696;2023-03-01T10:28:50;44.70;;;18.37;;
17967;SDS011;9109;48.050;11.696;2023-03-01T10:32:02;49.10;;;18.80;;
17967;SDS011;9109;48.050;11.696;2023-03-01T10:35:15;57.13;;;23.83;;
17967;SDS011;9109;48.050;11.696;2023-03-01T10:38:18;48.73;;;19.13;;
17967;SDS011;9109;48.050;11.696;2023-03-01T10:41:23;50.87;;;20.13;;
17967;SDS011;9109;48.050;11.696;2023-03-01T10:44:34;43.40;;;18.50;;
17967;SDS011;9109;48.050;11.696;2023-03-01T10:47:38;45.00;;;18.23;;
17967;SDS011;9109;48.050;11.696;2023-03-01T10:50:41;38.87;;;17.03;;
17967;SDS011;9109;48.050;11.696;2023-03-01T10:53:47;48.80;;;20.10;;
17967;SDS011;9109;48.050;11.696;2023-03-01T10:56:53;41.87;;;17.60;;
17967;SDS011;9109;48.050;11.696;2023-03-01T11:00:00;48.10;;;18.87;;
17967;SDS011;9109;48.050;11.696;2023-03-01T11:03:18;44.47;;;18.70;;
17967;SDS011;9109;48.050;11.696;2023-03-01T11:06:22;43.87;;;19.30;;
17967;SDS011;9109;48.050;11.696;2023-03-01T11:09:26;50.73;;;18.87;;
17967;SDS011;9109;48.050;11.696;2023-03-01T11:12:38;47.70;;;19.63;;
17967;SDS011;9109;48.050;11.696;2023-03-01T11:15:41;47.20;;;19.60;;
17967;SDS011;9109;48.050;11.696;2023-03-01T11:18:43;50.50;;;20.30;;
17967;SDS011;9109;48.050;11.696;2023-03-01T11:21:58;45.13;;;19.00;;
17967;SDS011;9109;48.050;11.696;2023-03-01T11:25:04;45.47;;;19.20;;
17967;SDS011;9109;48.050;11.696;2023-03-01T11:28:14;41.80;;;19.17;;
17967;SDS011;9109;48.050;11.696;2023-03-01T11:31:18;39.53;;;16.77;;
17967;SDS011;9109;48.050;11.696;2023-03-01T11:34:22;40.37;;;17.07;;
17967;SDS011;9109;48.050;11.696;2023-03-01T11:37:32;45.03;;;18.00;;
17967;SDS011;9109;48.050;11.696;2023-03-01T11:40:40;45.10;;;17.63;;
17967;SDS011;9109;48.050;11.696;2023-03-01T11:43:49;40.67;;;17.60;;
17967;SDS011;9109;48.050;11.696;2023-03-01T11:47:06;44.43;;;18.67;;
17967;SDS011;9109;48.050;11.696;2023-03-01T11:50:26;38.13;;;16.57;;
17967;SDS011;9109;48.050;11.696;2023-03-01T11:53:51;46.63;;;17.90;;
17967;SDS011;9109;48.050;11.696;2023-03-01T11:57:00;43.33;;;18.67;;
17967;SDS011;9109;48.050;11.696;2023-03-01T12:00:13;45.20;;;18.27;;
17967;SDS011;9109;48.050;11.696;2023-03-01T12:03:41;47.03;;;18.80;;
17967;SDS011;9109;48.050;11.696;2023-03-01T12:07:07;46.30;;;18.23;;
17967;SDS011;9109;48.050;11.696;2023-03-01T12:10:18;48.57;;;20.33;;
17967;SDS011;9109;48.050;11.696;2023-03-01T12:13:25;45.30;;;20.00;;
17967;SDS011;9109;48.050;11.696;2023-03-01T12:16:50;44.77;;;18.77;;
17967;SDS011;9109;48.050;11.696;2023-03-01T12:20:13;49.37;;;21.10;;
17967;SDS011;9109;48.050;11.696;2023-03-01T12:23:27;43.53;;;20.67;;
17967;SDS011;9109;48.050;11.696;2023-03-01T12:26:44;44.40;;;18.80;;
17967;SDS011;9109;48.050;11.696;2023-03-01T12:29:55;46.77;;;21.20;;
17967;SDS011;9109;48.050;11.696;2023-03-01T12:33:09;49.30;;;22.13;;
17967;SDS011;9109;48.050;11.696;2023-03-01T12:36:27;45.87;;;21.20;;
17967;SDS011;9109;48.050;11.696;2023-03-01T12:39:42;48.27;;;20.67;;
17967;SDS011;9109;48.050;11.696;2023-03-01T12:42:54;48.00;;;20.43;;
17967;SDS011;9109;48.050;11.696;2023-03-01T12:46:09;46.47;;;19.83;;
17967;SDS011;9109;48.050;11.696;2023-03-01T12:49:19;43.33;;;19.10;;
17967;SDS011;9109;48.050;11.696;2023-03-01T12:52:28;48.97;;;20.80;;
17967;SDS011;9109;48.050;11.696;2023-03-01T12:55:39;50.43;;;21.47;;
17967;SDS011;9109;48.050;11.696;2023-03-01T12:58:46;43.97;;;19.77;;
17967;SDS011;9109;48.050;11.696;2023-03-01T13:01:56;50.17;;;20.40;;
17967;SDS011;9109;48.050;11.696;2023-03-01T13:05:13;50.50;;;21.03;;
17967;SDS011;9109;48.050;11.696;2023-03-01T13:08:26;43.73;;;20.70;;
17967;SDS011;9109;48.050;11.696;2023-03-01T13:11:33;49.23;;;20.77;;
17967;SDS011;9109;48.050;11.696;2023-03-01T13:14:36;45.50;;;20.83;;
17967;SDS011;9109;48.050;11.696;2023-03-01T13:17:45;51.50;;;22.33;;
17967;SDS011;9109;48.050;11.696;2023-03-01T13:20:52;51.37;;;22.40;;
17967;SDS011;9109;48.050;11.696;2023-03-01T13:23:57;44.63;;;20.83;;
17967;SDS011;9109;48.050;11.696;2023-03-01T13:27:09;57.73;;;22.30;;
17967;SDS011;9109;48.050;11.696;2023-03-01T13:30:38;56.63;;;22.63;;
17967;SDS011;9109;48.050;11.696;2023-03-01T13:33:44;52.80;;;22.23;;
17967;SDS011;9109;48.050;11.696;2023-03-01T13:36:48;54.87;;;21.63;;
17967;SDS011;9109;48.050;11.696;2023-03-01T13:39:50;60.83;;;24.73;;
17967;SDS011;9109;48.050;11.696;2023-03-01T13:42:53;57.23;;;21.67;;
17967;SDS011;9109;48.050;11.696;2023-03-01T13:45:55;47.27;;;20.77;;
17967;SDS011;9109;48.050;11.696;2023-03-01T13:48:59;46.27;;;21.60;;
17967;SDS011;9109;48.050;11.696;2023-03-01T13:52:03;47.07;;;20.80;;
17967;SDS011;9109;48.050;11.696;2023-03-01T13:55:14;48.20;;;21.37;;
17967;SDS011;9109;48.050;11.696;2023-03-01T13:58:21;55.17;;;22.10;;
17967;SDS011;9109;48.050;11.696;2023-03-01T14:01:26;49.17;;;20.60;;
17967;SDS011;9109;48.050;11.696;2023-03-01T14:04:30;50.63;;;21.93;;
17967;SDS011;9109;48.050;11.696;2023-03-01T14:07:37;54.17;;;23.10;;
17967;SDS011;9109;48.050;11.696;2023-03-01T14:10:43;54.20;;;22.93;;
17967;SDS011;9109;48.050;11.696;2023-03-01T14:13:55;46.87;;;20.83;;
17967;SDS011;9109;48.050;11.696;2023-03-01T14:17:16;55.73;;;23.70;;
17967;SDS011;9109;48.050;11.696;2023-03-01T14:20:42;53.97;;;21.40;;
17967;SDS011;9109;48.050;11.696;2023-03-01T14:23:47;47.77;;;20.33;;
17967;SDS011;9109;48.050;11.696;2023-03-01T14:26:49;50.77;;;22.20;;
17967;SDS011;9109;48.050;11.696;2023-03-01T14:29:55;52.27;;;21.30;;
17967;SDS011;9109;48.050;11.696;2023-03-01T14:32:59;53.07;;;22.70;;
17967;SDS011;9109;48.050;11.696;2023-03-01T14:36:03;48.27;;;20.37;;
17967;SDS011;9109;48.050;11.696;2023-03-01T14:39:16;48.97;;;22.37;;
17967;SDS011;9109;48.050;11.696;2023-03-01T14:42:22;48.90;;;21.43;;
17967;SDS011;9109;48.050;11.696;2023-03-01T14:45:27;48.73;;;21.53;;
17967;SDS011;9109;48.050;11.696;2023-03-01T14:48:31;44.07;;;21.00;;
17967;SDS011;9109;48.050;11.696;2023-03-01T14:51:37;50.00;;;22.13;;
17967;SDS011;9109;48.050;11.696;2023-03-01T14:54:42;46.37;;;21.27;;
17967;SDS011;9109;48.050;11.696;2023-03-01T14:57:47;50.23;;;22.10;;
17967;SDS011;9109;48.050;11.696;2023-03-01T15:00:51;44.87;;;20.83;;
17967;SDS011;9109;48.050;11.696;2023-03-01T15:03:55;44.10;;;18.97;;
17967;SDS011;9109;48.050;11.696;2023-03-01T15:06:56;40.77;;;20.40;;
17967;SDS011;9109;48.050;11.696;2023-03-01T15:10:07;46.97;;;20.77;;
17967;SDS011;9109;48.050;11.696;2023-03-01T15:13:21;52.10;;;22.67;;
17967;SDS011;9109;48.050;11.696;2023-03-01T15:16:24;44.67;;;20.87;;
17967;SDS011;9109;48.050;11.696;2023-03-01T15:19:28;51.27;;;23.03;;
17967;SDS011;9109;48.050;11.696;2023-03-01T15:22:31;47.63;;;21.47;;
17967;SDS011;9109;48.050;11.696;2023-03-01T15:25:34;43.17;;;20.23;;
17967;SDS011;9109;48.050;11.696;2023-03-01T15:28:41;49.47;;;20.97;;
17967;SDS011;9109;48.050;11.696;2023-03-01T15:31:53;47.23;;;20.27;;
17967;SDS011;9109;48.050;11.696;2023-03-01T15:34:57;51.73;;;21.37;;
17967;SDS011;9109;48.050;11.696;2023-03-01T15:37:59;42.10;;;19.90;;
17967;SDS011;9109;48.050;11.696;2023-03-01T15:41:03;43.50;;;19.93;;
17967;SDS011;9109;48.050;11.696;2023-03-01T15:44:14;53.80;;;20.23;;
17967;SDS011;9109;48.050;11.696;2023-03-01T15:47:22;42.93;;;19.63;;
17967;SDS011;9109;48.050;11.696;2023-03-01T15:50:29;45.23;;;19.47;;
17967;SDS011;9109;48.050;11.696;2023-03-01T15:53:33;47.13;;;21.03;;
17967;SDS011;9109;48.050;11.696;2023-03-01T15:56:36;44.60;;;21.67;;
17967;SDS011;9109;48.050;11.696;2023-03-01T15:59:38;49.20;;;21.70;;
17967;SDS011;9109;48.050;11.696;2023-03-01T16:02:41;54.13;;;21.50;;
17967;SDS011;9109;48.050;11.696;2023-03-01T16:05:43;48.70;;;20.67;;
17967;SDS011;9109;48.050;11.696;2023-03-01T16:08:45;47.77;;;21.67;;
17967;SDS011;9109;48.050;11.696;2023-03-01T16:11:49;48.47;;;21.30;;
17967;SDS011;9109;48.050;11.696;2023-03-01T16:14:51;62.00;;;23.17;;
17967;SDS011;9109;48.050;11.696;2023-03-01T16:17:53;50.27;;;21.93;;
17967;SDS011;9109;48.050;11.696;2023-03-01T16:20:57;49.50;;;22.27;;
17967;SDS011;9109;48.050;11.696;2023-03-01T16:23:59;49.07;;;21.73;;
17967;SDS011;9109;48.050;11.696;2023-03-01T16:27:02;48.07;;;21.40;;
17967;SDS011;9109;48.050;11.696;2023-03-01T16:30:05;45.80;;;20.70;;
17967;SDS011;9109;48.050;11.696;2023-03-01T16:33:08;47.23;;;21.17;;
17967;SDS011;9109;48.050;11.696;2023-03-01T16:36:10;52.67;;;22.10;;
17967;SDS011;9109;48.050;11.696;2023-03-01T16:39:14;43.37;;;21.30;;
17967;SDS011;9109;48.050;11.696;2023-03-01T16:42:18;48.47;;;21.27;;
17967;SDS011;9109;48.050;11.696;2023-03-01T16:45:20;50.07;;;21.60;;
17967;SDS011;9109;48.050;11.696;2023-03-01T16:48:22;46.50;;;20.80;;
17967;SDS011;9109;48.050;11.696;2023-03-01T16:51:23;50.33;;;21.07;;
17967;SDS011;9109;48.050;11.696;2023-03-01T16:54:26;46.80;;;20.53;;
17967;SDS011;9109;48.050;11.696;2023-03-01T16:57:29;46.47;;;20.83;;
17967;SDS011;9109;48.050;11.696;2023-03-01T17:00:31;45.83;;;21.27;;
17967;SDS011;9109;48.050;11.696;2023-03-01T17:03:33;50.67;;;21.43;;
17967;SDS011;9109;48.050;11.696;2023-03-01T17:06:35;52.17;;;20.63;;
17967;SDS011;9109;48.050;11.696;2023-03-01T17:09:37;45.93;;;20.83;;
17967;SDS011;9109;48.050;11.696;2023-03-01T17:12:40;47.73;;;21.57;;
17967;SDS011;9109;48.050;11.696;2023-03-01T17:15:42;48.30;;;21.53;;
17967;SDS011;9109;48.050;11.696;2023-03-01T17:18:44;48.60;;;20.60;;
17967;SDS011;9109;48.050;11.696;2023-03-01T17:21:46;43.67;;;21.03;;
17967;SDS011;9109;48.050;11.696;2023-03-01T17:24:48;47.33;;;20.47;;
17967;SDS011;9109;48.050;11.696;2023-03-01T17:27:52;51.30;;;20.87;;
17967;SDS011;9109;48.050;11.696;2023-03-01T17:30:54;45.03;;;19.03;;
17967;SDS011;9109;48.050;11.696;2023-03-01T17:33:56;46.57;;;20.17;;
17967;SDS011;9109;48.050;11.696;2023-03-01T17:36:59;51.83;;;21.10;;
17967;SDS011;9109;48.050;11.696;2023-03-01T17:40:01;49.53;;;19.93;;
17967;SDS011;9109;48.050;11.696;2023-03-01T17:43:04;45.80;;;19.47;;
17967;SDS011;9109;48.050;11.696;2023-03-01T17:46:06;49.20;;;20.50;;
17967;SDS011;9109;48.050;11.696;2023-03-01T17:49:08;44.17;;;19.43;;
17967;SDS011;9109;48.050;11.696;2023-03-01T17:52:10;44.90;;;18.80;;
17967;SDS011;9109;48.050;11.696;2023-03-01T17:55:12;45.63;;;19.30;;
17967;SDS011;9109;48.050;11.696;2023-03-01T17:58:16;48.90;;;21.93;;
17967;SDS011;9109;48.050;11.696;2023-03-01T18:01:22;49.47;;;19.10;;
17967;SDS011;9109;48.050;11.696;2023-03-01T18:04:26;55.90;;;21.60;;
17967;SDS011;9109;48.050;11.696;2023-03-01T18:07:29;53.33;;;20.70;;
17967;SDS011;9109;48.050;11.696;2023-03-01T18:10:32;48.40;;;20.17;;
17967;SDS011;9109;48.050;11.696;2023-03-01T18:13:37;52.37;;;22.13;;
17967;SDS011;9109;48.050;11.696;2023-03-01T18:16:39;52.83;;;22.30;;
17967;SDS011;9109;48.050;11.696;2023-03-01T18:19:41;50.93;;;21.60;;
17967;SDS011;9109;48.050;11.696;2023-03-01T18:22:44;51.60;;;22.57;;
17967;SDS011;9109;48.050;11.696;2023-03-01T18:25:46;52.27;;;22.00;;
17967;SDS011;9109;48.050;11.696;2023-03-01T18:28:50;51.67;;;21.93;;
17967;SDS011;9109;48.050;11.696;2023-03-01T18:31:52;53.20;;;23.17;;
17967;SDS011;9109;48.050;11.696;2023-03-01T18:34:54;50.90;;;20.20;;
17967;SDS011;9109;48.050;11.696;2023-03-01T18:37:56;57.27;;;22.37;;
17967;SDS011;9109;48.050;11.696;2023-03-01T18:40:58;55.73;;;22.47;;
17967;SDS011;9109;48.050;11.696;2023-03-01T18:44:02;50.23;;;21.60;;
17967;SDS011;9109;48.050;11.696;2023-03-01T18:47:05;54.53;;;21.87;;
17967;SDS011;9109;48.050;11.696;2023-03-01T18:50:07;45.17;;;21.10;;
17967;SDS011;9109;48.050;11.696;2023-03-01T18:53:10;54.53;;;21.57;;
17967;SDS011;9109;48.050;11.696;2023-03-01T18:56:12;49.70;;;20.63;;
17967;SDS011;9109;48.050;11.696;2023-03-01T18:59:15;51.47;;;21.63;;
17967;SDS011;9109;48.050;11.696;2023-03-01T19:02:17;53.17;;;21.67;;
17967;SDS011;9109;48.050;11.696;2023-03-01T19:05:19;45.23;;;19.50;;
17967;SDS011;9109;48.050;11.696;2023-03-01T19:08:22;51.47;;;21.73;;
17967;SDS011;9109;48.050;11.696;2023-03-01T19:11:24;43.90;;;20.17;;
17967;SDS011;9109;48.050;11.696;2023-03-01T19:14:30;42.40;;;20.13;;
17967;SDS011;9109;48.050;11.696;2023-03-01T19:17:33;56.13;;;22.07;;
17967;SDS011;9109;48.050;11.696;2023-03-01T19:20:35;48.13;;;21.07;;
17967;SDS011;9109;48.050;11.696;2023-03-01T19:23:37;51.97;;;19.87;;
17967;SDS011;9109;48.050;11.696;2023-03-01T19:26:39;47.27;;;20.07;;
17967;SDS011;9109;48.050;11.696;2023-03-01T19:29:42;51.70;;;21.47;;
17967;SDS011;9109;48.050;11.696;2023-03-01T19:32:44;45.63;;;19.23;;
17967;SDS011;9109;48.050;11.696;2023-03-01T19:35:46;44.97;;;20.23;;
17967;SDS011;9109;48.050;11.696;2023-03-01T19:38:50;60.60;;;23.13;;
17967;SDS011;9109;48.050;11.696;2023-03-01T19:41:52;65.03;;;23.73;;
17967;SDS011;9109;48.050;11.696;2023-03-01T19:44:55;61.67;;;25.37;;
17967;SDS011;9109;48.050;11.696;2023-03-01T19:47:59;50.23;;;21.53;;
17967;SDS011;9109;48.050;11.696;2023-03-01T19:51:01;53.50;;;24.60;;
17967;SDS011;9109;48.050;11.696;2023-03-01T19:54:04;61.87;;;24.00;;
17967;SDS011;9109;48.050;11.696;2023-03-01T19:57:06;55.93;;;22.47;;
17967;SDS011;9109;48.050;11.696;2023-03-01T20:00:10;62.70;;;25.27;;
17967;SDS011;9109;48.050;11.696;2023-03-01T20:03:12;54.17;;;23.03;;
17967;SDS011;9109;48.050;11.696;2023-03-01T20:06:16;55.53;;;23.30;;
17967;SDS011;9109;48.050;11.696;2023-03-01T20:09:20;61.77;;;23.97;;
17967;SDS011;9109;48.050;11.696;2023-03-01T20:12:22;54.57;;;22.60;;
17967;SDS011;9109;48.050;11.696;2023-03-01T20:15:25;55.50;;;24.30;;
17967;SDS011;9109;48.050;11.696;2023-03-01T20:18:27;49.30;;;21.63;;
17967;SDS011;9109;48.050;11.696;2023-03-01T20:21:29;61.03;;;23.87;;
17967;SDS011;9109;48.050;11.696;2023-03-01T20:24:32;56.63;;;24.27;;
17967;SDS011;9109;48.050;11.696;2023-03-01T20:27:34;60.87;;;24.07;;
17967;SDS011;9109;48.050;11.696;2023-03-01T20:30:37;50.33;;;22.93;;
17967;SDS011;9109;48.050;11.696;2023-03-01T20:33:42;51.30;;;22.53;;
17967;SDS011;9109;48.050;11.696;2023-03-01T20:36:44;58.77;;;25.40;;
17967;SDS011;9109;48.050;11.696;2023-03-01T20:39:46;55.03;;;23.40;;
17967;SDS011;9109;48.050;11.696;2023-03-01T20:42:51;51.50;;;23.13;;
17967;SDS011;9109;48.050;11.696;2023-03-01T20:45:59;56.73;;;24.70;;
17967;SDS011;9109;48.050;11.696;2023-03-01T20:49:04;58.10;;;25.27;;
17967;SDS011;9109;48.050;11.696;2023-03-01T20:52:15;59.93;;;25.07;;
17967;SDS011;9109;48.050;11.696;2023-03-01T20:55:18;66.77;;;25.93;;
17967;SDS011;9109;48.050;11.696;2023-03-01T20:58:20;61.67;;;24.70;;
17967;SDS011;9109;48.050;11.696;2023-03-01T21:01:30;56.80;;;24.70;;
17967;SDS011;9109;48.050;11.696;2023-03-01T21:04:34;56.20;;;22.73;;
17967;SDS011;9109;48.050;11.696;2023-03-01T21:07:36;54.27;;;22.97;;
17967;SDS011;9109;48.050;11.696;2023-03-01T21:10:38;67.93;;;27.03;;
17967;SDS011;9109;48.050;11.696;2023-03-01T21:13:41;60.67;;;25.90;;
17967;SDS011;9109;48.050;11.696;2023-03-01T21:23:16;52.40;;;23.07;;
17967;SDS011;9109;48.050;11.696;2023-03-01T21:26:19;56.50;;;24.07;;
17967;SDS011;9109;48.050;11.696;2023-03-01T21:29:22;49.77;;;21.63;;
17967;SDS011;9109;48.050;11.696;2023-03-01T21:32:25;59.90;;;24.10;;
17967;SDS011;9109;48.050;11.696;2023-03-01T21:35:27;51.00;;;22.20;;
17967;SDS011;9109;48.050;11.696;2023-03-01T21:38:29;54.57;;;22.23;;
17967;SDS011;9109;48.050;11.696;2023-03-01T21:41:34;43.83;;;19.73;;
17967;SDS011;9109;48.050;11.696;2023-03-01T21:44:37;48.17;;;20.57;;
17967;SDS011;9109;48.050;11.696;2023-03-01T21:47:40;47.23;;;20.77;;
17967;SDS011;9109;48.050;11.696;2023-03-01T21:50:42;49.30;;;21.13;;
17967;SDS011;9109;48.050;11.696;2023-03-01T21:53:45;47.80;;;21.83;;
17967;SDS011;9109;48.050;11.696;2023-03-01T21:56:47;50.70;;;21.70;;
17967;SDS011;9109;48.050;11.696;2023-03-01T21:59:52;52.90;;;21.97;;
17967;SDS011;9109;48.050;11.696;2023-03-01T22:02:56;45.30;;;20.93;;
17967;SDS011;9109;48.050;11.696;2023-03-01T22:05:58;48.00;;;21.27;;
17967;SDS011;9109;48.050;11.696;2023-03-01T22:09:02;48.77;;;21.20;;
17967;SDS011;9109;48.050;11.696;2023-03-01T22:12:07;49.53;;;19.83;;
17967;SDS011;9109;48.050;11.696;2023-03-01T22:15:09;45.40;;;20.33;;
17967;SDS011;9109;48.050;11.696;2023-03-01T22:18:13;50.37;;;20.13;;
17967;SDS011;9109;48.050;11.696;2023-03-01T22:21:15;46.23;;;20.23;;
17967;SDS011;9109;48.050;11.696;2023-03-01T22:24:18;51.20;;;20.33;;
17967;SDS011;9109;48.050;11.696;2023-03-01T22:27:22;47.27;;;19.83;;
17967;SDS011;9109;48.050;11.696;2023-03-01T22:30:24;46.20;;;19.03;;
17967;SDS011;9109;48.050;11.696;2023-03-01T22:33:27;53.07;;;20.67;;
17967;SDS011;9109;48.050;11.696;2023-03-01T22:36:29;46.30;;;20.03;;
17967;SDS011;9109;48.050;11.696;2023-03-01T22:39:32;46.57;;;19.33;;
17967;SDS011;9109;48.050;11.696;2023-03-01T22:42:34;45.10;;;20.13;;
17967;SDS011;9109;48.050;11.696;2023-03-01T22:45:37;46.00;;;19.87;;
17967;SDS011;9109;48.050;11.696;2023-03-01T22:52:28;47.97;;;19.33;;
17967;SDS011;9109;48.050;11.696;2023-03-01T22:55:34;45.20;;;18.80;;
17967;SDS011;9109;48.050;11.696;2023-03-01T22:58:36;46.87;;;19.50;;